createdAt,value
2022-11-13T00:00:59.810Z,1.08
2022-11-13T00:03:46.759Z,0.82
2022-11-13T00:06:34.427Z,0.90
2022-11-13T00:09:21.154Z,1.20
2022-11-13T00:12:08.409Z,1.00
2022-11-13T00:14:56.754Z,0.95
2022-11-13T00:17:46.032Z,1.10
2022-11-13T00:20:32.738Z,0.95
2022-11-13T00:23:19.579Z,1.38
2022-11-13T00:26:09.991Z,0.75
2022-11-13T00:28:58.745Z,1.35
2022-11-13T00:31:47.253Z,1.05
2022-11-13T00:34:47.026Z,0.77
2022-11-13T00:37:34.243Z,5.53
2022-11-13T00:40:20.955Z,1.85
2022-11-13T00:43:08.005Z,1.17
2022-11-13T00:45:55.253Z,0.73
2022-11-13T00:48:43.719Z,0.98
2022-11-13T00:51:30.855Z,0.80
2022-11-13T00:54:17.616Z,0.80
2022-11-13T00:57:04.563Z,1.13
2022-11-13T00:59:51.248Z,1.02
2022-11-13T01:02:38.154Z,1.30
2022-11-13T01:05:26.987Z,0.88
2022-11-13T01:08:15.161Z,0.80
2022-11-13T01:11:01.967Z,1.15
2022-11-13T01:13:50.469Z,1.38
2022-11-13T01:16:38.986Z,1.00
2022-11-13T01:19:25.764Z,0.88
2022-11-13T01:22:13.834Z,1.20
2022-11-13T01:25:00.935Z,0.70
2022-11-13T01:27:47.982Z,0.73
2022-11-13T01:30:34.926Z,1.27
2022-11-13T01:33:21.867Z,0.50
2022-11-13T01:36:12.215Z,0.60
2022-11-13T01:39:00.760Z,0.60
2022-11-13T01:41:47.592Z,0.73
2022-11-13T01:44:50.624Z,0.98
2022-11-13T01:47:37.879Z,1.02
2022-11-13T01:50:24.990Z,1.05
2022-11-13T01:53:12.935Z,0.80
2022-11-13T01:56:01.220Z,1.02
2022-11-13T01:58:53.198Z,0.95
2022-11-13T02:01:40.637Z,1.10
2022-11-13T02:04:29.750Z,1.00
2022-11-13T02:07:18.972Z,0.90
2022-11-13T02:10:07.518Z,0.95
2022-11-13T02:12:56.396Z,0.85
2022-11-13T02:15:45.250Z,0.90
2022-11-13T02:18:33.581Z,0.80
2022-11-13T02:21:31.251Z,0.70
2022-11-13T02:24:27.150Z,0.63
2022-11-13T02:27:25.101Z,0.82
2022-11-13T02:30:16.419Z,1.20
2022-11-13T02:33:03.816Z,0.55
2022-11-13T02:35:50.754Z,0.93
2022-11-13T02:38:38.980Z,0.68
2022-11-13T02:41:28.809Z,0.80
2022-11-13T02:44:16.212Z,0.85
2022-11-13T02:47:03.145Z,0.90
2022-11-13T02:49:50.012Z,0.70
2022-11-13T02:52:38.975Z,0.77
2022-11-13T02:55:27.146Z,1.05
2022-11-13T02:58:15.981Z,0.65
2022-11-13T03:01:03.747Z,0.50
2022-11-13T03:03:58.636Z,0.85
2022-11-13T03:06:46.199Z,0.60
2022-11-13T03:09:33.397Z,0.80
2022-11-13T03:12:20.450Z,0.77
2022-11-13T03:15:10.867Z,0.95
2022-11-13T03:17:58.270Z,0.85
2022-11-13T03:20:45.727Z,0.88
2022-11-13T03:23:32.954Z,0.68
2022-11-13T03:26:19.811Z,0.65
2022-11-13T03:29:06.575Z,0.55
2022-11-13T03:31:54.636Z,0.50
2022-11-13T03:34:41.683Z,0.93
2022-11-13T03:37:28.762Z,0.80
2022-11-13T03:40:15.428Z,0.80
2022-11-13T03:43:02.221Z,0.70
2022-11-13T03:45:49.523Z,0.88
2022-11-13T03:48:38.192Z,0.70
2022-11-13T03:51:25.057Z,0.80
2022-11-13T03:54:12.181Z,0.60
2022-11-13T03:56:59.523Z,0.77
2022-11-13T03:59:46.384Z,0.50
2022-11-13T04:02:33.528Z,0.40
2022-11-13T04:05:23.048Z,0.65
2022-11-13T04:08:10.325Z,0.80
2022-11-13T04:11:06.166Z,0.30
2022-11-13T04:13:52.909Z,0.60
2022-11-13T04:16:39.602Z,0.80
2022-11-13T04:19:26.487Z,0.40
2022-11-13T04:22:14.461Z,0.65
2022-11-13T04:25:01.578Z,1.13
2022-11-13T04:27:50.309Z,0.50
2022-11-13T04:30:37.439Z,0.40
2022-11-13T04:33:24.159Z,0.50
2022-11-13T04:36:11.336Z,0.50
2022-11-13T04:38:59.914Z,0.70
2022-11-13T04:42:03.996Z,1.50
2022-11-13T04:44:50.774Z,0.60
2022-11-13T04:47:37.751Z,0.65
2022-11-13T04:50:25.274Z,0.43
2022-11-13T04:53:12.160Z,0.50
2022-11-13T04:56:00.759Z,0.60
2022-11-13T04:58:48.108Z,0.80
2022-11-13T05:01:36.640Z,0.95
2022-11-13T05:04:23.874Z,0.73
2022-11-13T05:07:11.076Z,0.70
2022-11-13T05:09:58.299Z,0.75
2022-11-13T05:12:46.570Z,0.60
2022-11-13T05:15:33.296Z,0.40
2022-11-13T05:18:20.177Z,0.60
2022-11-13T05:21:08.161Z,0.55
2022-11-13T05:23:55.215Z,0.50
2022-11-13T05:26:41.962Z,0.43
2022-11-13T05:29:30.282Z,0.50
2022-11-13T05:32:17.004Z,0.60
2022-11-13T05:35:04.188Z,0.45
2022-11-13T05:37:51.383Z,0.75
2022-11-13T05:40:38.526Z,0.35
2022-11-13T05:43:25.681Z,0.77
2022-11-13T05:46:18.444Z,0.55
2022-11-13T05:49:05.890Z,0.68
2022-11-13T05:51:55.083Z,0.70
2022-11-13T05:54:42.072Z,0.73
2022-11-13T05:57:28.783Z,0.70
2022-11-13T06:00:16.949Z,0.50
2022-11-13T06:03:05.337Z,0.45
2022-11-13T06:05:52.121Z,0.65
2022-11-13T06:08:39.653Z,0.50
2022-11-13T06:11:28.086Z,0.40
2022-11-13T06:14:15.266Z,0.40
2022-11-13T06:17:02.263Z,0.43
2022-11-13T06:19:50.542Z,0.70
2022-11-13T06:22:37.772Z,0.85
2022-11-13T06:25:24.819Z,0.95
2022-11-13T06:28:11.576Z,0.50
2022-11-13T06:31:03.217Z,0.40
2022-11-13T06:33:50.846Z,0.50
2022-11-13T06:36:40.288Z,0.30
2022-11-13T06:39:27.843Z,0.30
2022-11-13T06:42:15.815Z,0.45
2022-11-13T06:45:03.667Z,0.55
2022-11-13T06:47:51.654Z,0.30
2022-11-13T06:50:42.362Z,0.40
2022-11-13T06:53:33.692Z,0.40
2022-11-13T06:56:22.535Z,0.75
2022-11-13T06:59:11.472Z,0.57
2022-11-13T07:01:58.985Z,0.35
2022-11-13T07:04:46.507Z,0.32
2022-11-13T07:07:34.591Z,0.60
2022-11-13T07:10:23.743Z,0.40
2022-11-13T07:13:11.621Z,0.30
2022-11-13T07:16:15.957Z,0.40
2022-11-13T07:19:05.784Z,0.70
2022-11-13T07:21:53.097Z,0.57
2022-11-13T07:24:40.942Z,0.90
2022-11-13T07:27:36.370Z,0.85
2022-11-13T07:30:25.156Z,0.75
2022-11-13T07:33:14.256Z,0.40
2022-11-13T07:36:02.382Z,0.68
2022-11-13T07:38:50.245Z,0.50
2022-11-13T07:41:38.509Z,0.68
2022-11-13T07:44:52.920Z,0.50
2022-11-13T07:47:38.541Z,1.50
2022-11-13T07:50:29.494Z,1.15
2022-11-13T07:53:18.855Z,0.98
2022-11-13T07:56:07.286Z,0.50
2022-11-13T07:58:57.342Z,0.40
2022-11-13T08:01:48.479Z,0.30
2022-11-13T08:04:36.586Z,0.30
2022-11-13T08:07:27.371Z,0.40
2022-11-13T08:10:15.979Z,0.65
2022-11-13T08:13:05.152Z,0.40
2022-11-13T08:15:52.779Z,0.70
2022-11-13T08:18:41.355Z,1.10
2022-11-13T08:21:29.619Z,2.35
2022-11-13T08:24:16.500Z,2.95
2022-11-13T08:27:03.264Z,2.53
2022-11-13T08:29:50.491Z,2.00
2022-11-13T08:32:37.445Z,0.50
2022-11-13T08:35:29.375Z,0.83
2022-11-13T08:38:16.828Z,0.60
2022-11-13T08:41:08.920Z,0.60
2022-11-13T08:43:56.852Z,0.70
2022-11-13T08:46:43.988Z,0.70
2022-11-13T08:49:30.876Z,1.50
2022-11-13T08:52:19.303Z,6.73
2022-11-13T08:55:06.908Z,13.40
2022-11-13T08:57:53.861Z,4.57
2022-11-13T09:00:40.858Z,3.97
2022-11-13T09:03:27.708Z,3.03
2022-11-13T09:06:14.483Z,2.67
2022-11-13T09:09:03.306Z,1.63
2022-11-13T09:11:50.870Z,1.60
2022-11-13T09:14:38.112Z,1.73
2022-11-13T09:17:25.183Z,2.60
2022-11-13T09:20:14.019Z,1.40
2022-11-13T09:23:02.849Z,2.30
2022-11-13T09:25:51.337Z,2.57
2022-11-13T09:28:38.370Z,2.00
2022-11-13T09:31:25.733Z,1.30
2022-11-13T09:34:12.542Z,2.00
2022-11-13T09:36:59.411Z,6.00
2022-11-13T09:39:46.554Z,6.17
2022-11-13T09:42:38.162Z,4.93
2022-11-13T09:45:25.388Z,3.67
2022-11-13T09:48:22.988Z,2.40
2022-11-13T09:51:14.769Z,1.80
2022-11-13T09:54:06.226Z,1.80
2022-11-13T09:56:58.766Z,1.50
2022-11-13T09:59:53.126Z,1.90
2022-11-13T10:02:54.380Z,2.17
2022-11-13T10:05:47.038Z,2.07
2022-11-13T10:08:47.904Z,4.10
2022-11-13T10:11:40.375Z,5.57
2022-11-13T10:14:32.643Z,3.17
2022-11-13T10:17:28.438Z,3.13
2022-11-13T10:20:18.923Z,2.90
2022-11-13T10:23:13.585Z,4.60
2022-11-13T10:26:17.397Z,4.10
2022-11-13T10:29:12.049Z,4.27
2022-11-13T10:31:59.312Z,3.90
2022-11-13T10:34:53.939Z,7.60
2022-11-13T10:37:53.466Z,4.83
2022-11-13T10:40:42.053Z,3.47
2022-11-13T10:43:29.381Z,2.93
2022-11-13T10:46:22.001Z,2.50
2022-11-13T10:49:14.589Z,2.87
2022-11-13T10:52:08.454Z,2.80
2022-11-13T10:55:15.494Z,2.70
2022-11-13T10:58:03.890Z,2.63
2022-11-13T11:00:50.940Z,2.23
2022-11-13T11:03:37.539Z,2.37
2022-11-13T11:07:04.478Z,2.80
2022-11-13T11:09:47.621Z,2.40
2022-11-13T11:12:34.717Z,2.00
2022-11-13T11:15:26.616Z,2.00
2022-11-13T11:18:23.551Z,1.40
2022-11-13T11:21:14.997Z,1.77
2022-11-13T11:24:07.823Z,1.40
2022-11-13T11:27:04.298Z,1.33
2022-11-13T11:29:58.811Z,1.67
2022-11-13T11:32:52.355Z,1.60
2022-11-13T11:35:44.416Z,2.00
2022-11-13T11:38:37.461Z,1.53
2022-11-13T11:41:29.984Z,2.83
2022-11-13T11:44:26.117Z,1.83
2022-11-13T11:47:16.184Z,1.80
2022-11-13T11:50:03.616Z,1.90
2022-11-13T11:53:01.080Z,2.73
2022-11-13T11:56:09.007Z,2.23
2022-11-13T11:59:27.202Z,1.73
2022-11-13T12:02:47.495Z,2.20
2022-11-13T12:05:46.240Z,1.97
2022-11-13T12:08:40.705Z,3.70
2022-11-13T12:11:31.591Z,2.73
2022-11-13T12:14:27.504Z,2.63
2022-11-13T12:17:31.346Z,1.70
2022-11-13T12:20:27.592Z,1.43
2022-11-13T12:23:28.657Z,0.87
2022-11-13T12:26:24.297Z,1.00
2022-11-13T12:29:26.381Z,2.10
2022-11-13T12:32:29.577Z,2.37
2022-11-13T12:35:19.476Z,1.60
2022-11-13T12:38:17.417Z,1.90
2022-11-13T12:41:12.481Z,2.13
2022-11-13T12:44:20.879Z,2.73
2022-11-13T12:47:09.655Z,2.50
2022-11-13T12:50:03.285Z,1.90
2022-11-13T12:53:11.416Z,2.00
2022-11-13T12:56:00.539Z,2.20
2022-11-13T12:59:23.703Z,1.50
2022-11-13T13:02:22.767Z,2.23
2022-11-13T13:05:24.883Z,2.20
2022-11-13T13:08:47.735Z,1.67
2022-11-13T13:11:45.043Z,2.07
2022-11-13T13:14:57.524Z,1.87
2022-11-13T13:17:44.449Z,1.33
2022-11-13T13:20:36.982Z,2.03
2022-11-13T13:23:29.101Z,21.33
2022-11-13T13:26:18.966Z,4.90
2022-11-13T13:29:31.872Z,1.40
2022-11-13T13:32:24.520Z,1.80
2022-11-13T13:35:16.504Z,1.67
2022-11-13T13:38:14.575Z,1.30
2022-11-13T13:41:17.055Z,1.73
2022-11-13T13:44:27.253Z,1.47
2022-11-13T13:47:23.627Z,1.47
2022-11-13T13:50:16.273Z,1.80
2022-11-13T13:53:04.693Z,1.40
2022-11-13T13:55:53.717Z,1.20
2022-11-13T13:58:41.846Z,1.43
2022-11-13T14:01:30.716Z,1.20
2022-11-13T14:04:20.677Z,1.60
2022-11-13T14:07:21.550Z,1.83
2022-11-13T14:10:17.182Z,1.33
2022-11-13T14:13:04.940Z,1.80
2022-11-13T14:16:02.305Z,2.30
2022-11-13T14:18:49.015Z,2.13
2022-11-13T14:21:35.779Z,1.80
2022-11-13T14:24:25.765Z,2.00
2022-11-13T14:27:19.472Z,1.90
2022-11-13T14:30:11.013Z,1.73
2022-11-13T14:33:10.127Z,2.03
2022-11-13T14:35:59.412Z,2.53
2022-11-13T14:38:52.211Z,2.30
2022-11-13T14:41:42.384Z,2.80
2022-11-13T14:44:34.448Z,2.07
2022-11-13T14:47:24.450Z,2.13
2022-11-13T14:50:22.188Z,1.23
2022-11-13T14:53:10.531Z,1.13
2022-11-13T14:55:59.270Z,0.83
2022-11-13T14:58:47.853Z,0.90
2022-11-13T15:01:36.374Z,0.93
2022-11-13T15:04:23.487Z,1.50
2022-11-13T15:07:22.995Z,1.63
2022-11-13T15:10:14.896Z,1.30
2022-11-13T15:13:01.935Z,1.00
2022-11-13T15:15:48.611Z,0.70
2022-11-13T15:18:36.736Z,0.97
2022-11-13T15:21:24.590Z,0.90
2022-11-13T15:24:12.149Z,1.60
2022-11-13T15:26:59.239Z,1.03
2022-11-13T15:29:46.407Z,0.97
2022-11-13T15:32:33.577Z,0.90
2022-11-13T15:35:22.965Z,0.80
2022-11-13T15:38:09.983Z,0.77
2022-11-13T15:40:56.862Z,1.10
2022-11-13T15:43:46.226Z,0.97
2022-11-13T15:46:33.106Z,0.73
2022-11-13T15:49:19.877Z,0.80
2022-11-13T15:52:08.672Z,0.80
2022-11-13T15:54:55.648Z,1.10
2022-11-13T15:57:43.203Z,1.00
2022-11-13T16:00:30.648Z,0.63
2022-11-13T16:03:19.213Z,6.17
2022-11-13T16:06:06.537Z,4.40
2022-11-13T16:08:54.919Z,2.57
2022-11-13T16:11:43.622Z,2.40
2022-11-13T16:14:30.725Z,2.70
2022-11-13T16:17:20.376Z,2.53
2022-11-13T16:20:11.329Z,2.63
2022-11-13T16:22:58.198Z,3.33
2022-11-13T16:25:47.524Z,2.40
2022-11-13T16:28:42.063Z,1.87
2022-11-13T16:31:41.636Z,2.07
2022-11-13T16:34:28.437Z,2.17
2022-11-13T16:37:17.082Z,2.50
2022-11-13T16:40:03.954Z,5.07
2022-11-13T16:42:52.729Z,5.90
2022-11-13T16:45:39.857Z,9.03
2022-11-13T16:48:26.855Z,7.17
2022-11-13T16:51:13.568Z,7.33
2022-11-13T16:54:00.286Z,7.40
2022-11-13T16:56:47.021Z,4.57
2022-11-13T16:59:35.361Z,5.50
2022-11-13T17:02:22.025Z,4.30
2022-11-13T17:05:11.858Z,3.00
2022-11-13T17:08:00.204Z,3.80
2022-11-13T17:10:46.929Z,2.88
2022-11-13T17:13:33.773Z,3.50
2022-11-13T17:16:22.284Z,3.28
2022-11-13T17:19:13.111Z,5.10
2022-11-13T17:21:59.992Z,5.77
2022-11-13T17:24:46.762Z,4.18
2022-11-13T17:27:33.595Z,4.43
2022-11-13T17:30:20.630Z,3.70
2022-11-13T17:33:09.170Z,3.90
2022-11-13T17:35:56.343Z,3.90
2022-11-13T17:38:43.447Z,3.40
2022-11-13T17:41:30.143Z,3.88
2022-11-13T17:44:16.750Z,3.15
2022-11-13T17:47:03.510Z,2.63
2022-11-13T17:49:51.881Z,3.70
2022-11-13T17:52:38.812Z,2.88
2022-11-13T17:55:25.823Z,3.60
2022-11-13T17:58:12.559Z,4.20
2022-11-13T18:01:06.025Z,4.05
2022-11-13T18:03:56.135Z,4.28
2022-11-13T18:06:44.776Z,4.40
2022-11-13T18:09:31.721Z,4.07
2022-11-13T18:12:18.504Z,4.53
2022-11-13T18:15:05.882Z,4.07
2022-11-13T18:17:52.872Z,5.50
2022-11-13T18:20:41.492Z,4.63
2022-11-13T18:23:30.093Z,4.40
2022-11-13T18:26:19.858Z,5.43
2022-11-13T18:29:06.705Z,4.13
2022-11-13T18:31:53.258Z,6.60
2022-11-13T18:34:40.063Z,6.43
2022-11-13T18:37:27.005Z,5.47
2022-11-13T18:40:15.259Z,4.97
2022-11-13T18:43:01.966Z,5.95
2022-11-13T18:45:57.507Z,5.43
2022-11-13T18:48:45.824Z,4.63
2022-11-13T18:51:35.563Z,4.55
2022-11-13T18:54:22.765Z,6.50
2022-11-13T18:57:10.962Z,6.60
2022-11-13T18:59:57.805Z,5.78
2022-11-13T19:02:44.484Z,6.20
2022-11-13T19:05:31.134Z,7.60
2022-11-13T19:08:18.104Z,6.80
2022-11-13T19:11:07.201Z,6.47
2022-11-13T19:13:55.564Z,5.70
2022-11-13T19:16:42.425Z,5.45
2022-11-13T19:19:29.331Z,5.68
2022-11-13T19:22:17.330Z,5.30
2022-11-13T19:25:04.711Z,6.05
2022-11-13T19:27:54.069Z,5.63
2022-11-13T19:30:47.524Z,4.90
2022-11-13T19:33:34.225Z,5.72
2022-11-13T19:36:21.663Z,4.75
2022-11-13T19:39:09.771Z,4.68
2022-11-13T19:41:56.770Z,6.18
2022-11-13T19:44:43.617Z,4.38
2022-11-13T19:47:31.791Z,3.55
2022-11-13T19:50:18.676Z,4.93
2022-11-13T19:53:05.663Z,3.83
2022-11-13T19:55:56.193Z,5.18
2022-11-13T19:58:44.874Z,5.10
2022-11-13T20:01:32.929Z,5.45
2022-11-13T20:04:21.263Z,5.78
2022-11-13T20:07:08.116Z,5.22
2022-11-13T20:09:55.208Z,7.00
2022-11-13T20:12:41.922Z,5.45
2022-11-13T20:15:28.718Z,5.55
2022-11-13T20:18:15.641Z,4.97
2022-11-13T20:21:04.347Z,5.22
2022-11-13T20:23:51.349Z,6.05
2022-11-13T20:26:38.336Z,4.95
2022-11-13T20:29:25.050Z,5.45
2022-11-13T20:32:11.630Z,5.82
2022-11-13T20:34:58.351Z,6.68
2022-11-13T20:37:46.506Z,7.05
2022-11-13T20:40:33.328Z,5.78
2022-11-13T20:43:20.136Z,7.55
2022-11-13T20:46:08.835Z,6.90
2022-11-13T20:48:55.915Z,7.28
2022-11-13T20:51:43.480Z,7.05
2022-11-13T20:54:31.853Z,7.30
2022-11-13T20:57:21.298Z,6.80
2022-11-13T21:00:10.075Z,6.47
2022-11-13T21:02:56.722Z,6.43
2022-11-13T21:05:43.353Z,6.60
2022-11-13T21:08:30.626Z,6.22
2022-11-13T21:11:22.014Z,6.05
2022-11-13T21:14:10.494Z,6.78
2022-11-13T21:16:57.178Z,7.38
2022-11-13T21:19:43.845Z,9.07
2022-11-13T21:22:30.524Z,9.05
2022-11-13T21:25:17.753Z,8.20
2022-11-13T21:28:06.530Z,7.68
2022-11-13T21:30:53.697Z,7.10
2022-11-13T21:33:41.498Z,7.53
2022-11-13T21:36:29.537Z,7.05
2022-11-13T21:39:16.816Z,7.05
2022-11-13T21:42:03.677Z,7.53
2022-11-13T21:44:51.737Z,8.43
2022-11-13T21:47:38.521Z,7.57
2022-11-13T21:50:25.664Z,8.40
2022-11-13T21:53:13.299Z,7.90
2022-11-13T21:55:59.932Z,6.55
2022-11-13T21:58:46.876Z,7.47
2022-11-13T22:01:38.499Z,7.68
2022-11-13T22:04:25.557Z,7.30
2022-11-13T22:07:12.217Z,6.35
2022-11-13T22:10:00.146Z,7.65
2022-11-13T22:12:48.839Z,7.90
2022-11-13T22:15:38.833Z,6.03
2022-11-13T22:18:27.585Z,7.93
2022-11-13T22:21:16.137Z,6.93
2022-11-13T22:24:03.485Z,7.05
2022-11-13T22:26:50.265Z,7.15
2022-11-13T22:29:37.039Z,6.05
2022-11-13T22:32:23.706Z,7.93
2022-11-13T22:35:12.130Z,6.75
2022-11-13T22:37:58.963Z,6.75
2022-11-13T22:40:46.130Z,7.57
2022-11-13T22:43:34.547Z,6.28
2022-11-13T22:46:23.831Z,7.03
2022-11-13T22:49:13.494Z,6.95
2022-11-13T22:52:01.641Z,6.93
2022-11-13T22:54:48.803Z,6.20
2022-11-13T22:57:35.896Z,6.72
2022-11-13T23:00:22.493Z,7.23
2022-11-13T23:03:09.896Z,6.73
2022-11-13T23:05:56.777Z,7.18
2022-11-13T23:08:45.318Z,7.10
2022-11-13T23:11:33.545Z,6.70
2022-11-13T23:14:20.534Z,6.38
2022-11-13T23:17:07.329Z,5.47
2022-11-13T23:19:54.062Z,7.25
2022-11-13T23:22:40.808Z,6.03
2022-11-13T23:25:28.928Z,7.82
2022-11-13T23:28:15.703Z,7.15
2022-11-13T23:31:02.345Z,8.30
2022-11-13T23:33:49.094Z,7.40
2022-11-13T23:36:36.062Z,7.82
2022-11-13T23:39:22.774Z,7.37
2022-11-13T23:42:10.997Z,7.28
2022-11-13T23:44:58.023Z,6.77
2022-11-13T23:47:44.764Z,6.43
2022-11-13T23:50:31.783Z,6.50
2022-11-13T23:53:19.017Z,7.70
2022-11-13T23:56:06.481Z,7.33
2022-11-13T23:58:54.872Z,7.53
